Lolani — WDF3586 — position and weather

sailwx.info

Track history (hours):
 
Tides and Currents Weather Stations Pressure Air Temp Water Temp Dewpoint Dewpoint Depression Visibility Wind Speed Wind Dir Waves Ship Positions

Lolani

Owner: Scripps, Edward W, Bellevue, WA. More information available from US FCC via Universal Licensing System and Coast Guard Vessel Documentation Center.

Last reported at 2016-Feb-04 21:16 UTC. Time now 2016-Feb-06 18:43 UTC.
Position N 48°31' W 123°13'.

Type: Sailing vessel. MMSI: 316026565.

Date/timePositionNaut miles runAvg speedWind from/ knotsBaromVisibWave heightAir tempDewpointWater temp
2016-Feb-04 21:16N 48°31' W 123°13'5 7.4
2016-Feb-04 20:33N 48°28' W 123°07'42 1.8
2016-Feb-03 20:33N 47°53' W 122°30'7 6.7
2016-Feb-03 19:33N 47°47' W 122°26'6 6.1
2016-Feb-03 18:31N 47°41' W 122°24'0 0.0
2016-Feb-03 17:33N 47°41' W 122°24'0 0.0
2016-Feb-03 16:33N 47°41' W 122°24'0 0.0
2016-Feb-03 15:33N 47°41' W 122°24'0 0.0
2016-Feb-03 14:30N 47°41' W 122°24'0 0.0
2016-Feb-03 13:30N 47°41' W 122°24'0 0.0
2016-Feb-03 12:33N 47°41' W 122°24'0 0.0
2016-Feb-03 11:33N 47°41' W 122°24'0 0.0
2016-Feb-03 10:33N 47°41' W 122°24'0 0.0
2016-Feb-03 09:33N 47°41' W 122°24'0 0.0
2016-Feb-03 08:33N 47°41' W 122°24'0 0.0
2016-Feb-03 07:33N 47°41' W 122°24'0 0.0
2016-Feb-03 06:33N 47°41' W 122°24'0 0.0
2016-Feb-03 05:33N 47°41' W 122°24'0 0.0
2016-Feb-03 04:33N 47°41' W 122°24'0 0.0
2016-Feb-03 03:33N 47°41' W 122°24'0 0.0
2016-Feb-03 02:33N 47°41' W 122°24'0 0.0
2016-Feb-03 01:33N 47°41' W 122°24'0 0.0
2016-Feb-03 00:33N 47°41' W 122°24'0 0.0
2016-Feb-02 23:33N 47°41' W 122°24'0 0.0
2016-Feb-02 22:33N 47°41' W 122°24'0 0.0
2016-Feb-02 21:33N 47°41' W 122°24'0 0.0
2016-Feb-02 20:33N 47°41' W 122°24'0 0.0
2016-Feb-02 19:33N 47°41' W 122°24'0 0.0
2016-Feb-02 18:30N 47°41' W 122°24'0 0.0
2016-Feb-02 17:33N 47°41' W 122°24'0 0.0
2016-Feb-02 16:33N 47°41' W 122°24'0 0.0
2016-Feb-02 15:33N 47°41' W 122°24'0 0.0
2016-Feb-02 14:33N 47°41' W 122°24'0 0.0
2016-Feb-02 13:33N 47°41' W 122°24'0 0.0
2016-Feb-02 12:33N 47°41' W 122°24'0 0.0
2016-Feb-02 11:33N 47°41' W 122°24'0 0.0
2016-Feb-02 10:33N 47°41' W 122°24'0 0.0
2016-Feb-02 09:30N 47°41' W 122°24'0 0.0
2016-Feb-02 08:33N 47°41' W 122°24'0 0.0
2016-Feb-02 07:33N 47°41' W 122°24'0 0.0
2016-Feb-02 06:30N 47°41' W 122°24'0 0.0
2016-Feb-02 05:33N 47°41' W 122°24'0 0.0
2016-Feb-02 04:33N 47°41' W 122°24'0 0.0
2016-Feb-02 03:33N 47°41' W 122°24'0 0.0
2016-Feb-02 02:33N 47°41' W 122°24'0 0.0
2016-Feb-02 01:33N 47°41' W 122°24'0 0.0
2016-Feb-02 00:33N 47°41' W 122°24'0 0.0
2016-Feb-01 23:33N 47°41' W 122°24'0 0.0
2016-Feb-01 22:33N 47°41' W 122°24'0 0.0
2016-Feb-01 21:33N 47°41' W 122°24'0 0.0
2016-Feb-01 20:30N 47°41' W 122°24'0 0.0
2016-Feb-01 19:33N 47°41' W 122°24'0 0.0
2016-Feb-01 18:33N 47°41' W 122°24'0 0.0
2016-Feb-01 17:33N 47°41' W 122°24'0 0.0
2016-Feb-01 16:33N 47°41' W 122°24'0 0.0
2016-Feb-01 15:33N 47°41' W 122°24'0 0.0
2016-Feb-01 14:33N 47°41' W 122°24'0 0.0
2016-Feb-01 13:33N 47°41' W 122°24'0 0.0
2016-Feb-01 12:33N 47°41' W 122°24'0 0.0
2016-Feb-01 11:33N 47°41' W 122°24'0 0.0
2016-Feb-01 10:30N 47°41' W 122°24'0 0.0
2016-Feb-01 09:33N 47°41' W 122°24'0 0.0
2016-Feb-01 08:30N 47°41' W 122°24'0 0.0
2016-Feb-01 07:33N 47°41' W 122°24'0 0.0
2016-Feb-01 06:33N 47°41' W 122°24'0 0.0
2016-Feb-01 05:33N 47°41' W 122°24'0 0.0
2016-Feb-01 04:24N 47°41' W 122°24'0 0.0
2016-Feb-01 03:33N 47°41' W 122°24'0 0.0
2016-Feb-01 02:33N 47°41' W 122°24'0 0.0
2016-Feb-01 01:33N 47°41' W 122°24'0 0.0
2016-Feb-01 00:33N 47°41' W 122°24'1 1.2
2016-Jan-31 23:33N 47°42' W 122°25'5 5.5
2016-Jan-31 22:33N 47°47' W 122°26'6 5.9
2016-Jan-31 21:33N 47°53' W 122°28'42 1.5
2016-Jan-30 17:33N 48°30' W 122°58'3 3.3
2016-Jan-30 16:31N 48°32' W 123°01'0 0.0
2016-Jan-30 15:31N 48°32' W 123°01'0 0.0
2016-Jan-30 14:31N 48°32' W 123°01'0 0.0
2016-Jan-30 13:31N 48°32' W 123°01'0 0.0
2016-Jan-30 12:28N 48°32' W 123°01'0 0.0
2016-Jan-30 11:28N 48°32' W 123°01'0 0.0
2016-Jan-30 10:31N 48°32' W 123°01'0 0.0
2016-Jan-30 09:28N 48°32' W 123°01'0 0.0
2016-Jan-30 08:31N 48°32' W 123°01'0 0.0
2016-Jan-30 07:28N 48°32' W 123°01'0 0.0
2016-Jan-30 06:28N 48°32' W 123°01'0 0.0
2016-Jan-30 05:31N 48°32' W 123°01'0 0.0
2016-Jan-30 04:31N 48°32' W 123°01'0 0.0
2016-Jan-30 03:28N 48°32' W 123°01'0 0.0
2016-Jan-30 02:31N 48°32' W 123°01'0 0.0
2016-Jan-30 01:31N 48°32' W 123°01'0 0.0
2016-Jan-30 00:33N 48°32' W 123°01'0 0.0
2016-Jan-29 23:33N 48°32' W 123°01'17 1.4
2016-Jan-29 11:08N 48°40' W 123°24'0 0.0
2016-Jan-29 09:18N 48°40' W 123°24'  
Track history (hours):
 
Tides and Currents Weather Stations Pressure Air Temp Water Temp Dewpoint Dewpoint Depression Visibility Wind Speed Wind Dir Waves Ship Positions

Lolani

Owner: Scripps, Edward W, Bellevue, WA. More information available from US FCC via Universal Licensing System and Coast Guard Vessel Documentation Center.

Last reported at 2016-Feb-04 21:16 UTC. Time now 2016-Feb-06 18:43 UTC.
Position N 48°31' W 123°13'.

Type: Sailing vessel. MMSI: 316026565.

Date/timePositionNaut miles runAvg speedWind from/ knotsBaromVisibWave heightAir tempDewpointWater temp
2016-Feb-04 21:16N 48°31' W 123°13'5 7.4
2016-Feb-04 20:33N 48°28' W 123°07'42 1.8
2016-Feb-03 20:33N 47°53' W 122°30'7 6.7
2016-Feb-03 19:33N 47°47' W 122°26'6 6.1
2016-Feb-03 18:31N 47°41' W 122°24'0 0.0
2016-Feb-03 17:33N 47°41' W 122°24'0 0.0
2016-Feb-03 16:33N 47°41' W 122°24'0 0.0
2016-Feb-03 15:33N 47°41' W 122°24'0 0.0
2016-Feb-03 14:30N 47°41' W 122°24'0 0.0
2016-Feb-03 13:30N 47°41' W 122°24'0 0.0
2016-Feb-03 12:33N 47°41' W 122°24'0 0.0
2016-Feb-03 11:33N 47°41' W 122°24'0 0.0
2016-Feb-03 10:33N 47°41' W 122°24'0 0.0
2016-Feb-03 09:33N 47°41' W 122°24'0 0.0
2016-Feb-03 08:33N 47°41' W 122°24'0 0.0
2016-Feb-03 07:33N 47°41' W 122°24'0 0.0
2016-Feb-03 06:33N 47°41' W 122°24'0 0.0
2016-Feb-03 05:33N 47°41' W 122°24'0 0.0
2016-Feb-03 04:33N 47°41' W 122°24'0 0.0
2016-Feb-03 03:33N 47°41' W 122°24'0 0.0
2016-Feb-03 02:33N 47°41' W 122°24'0 0.0
2016-Feb-03 01:33N 47°41' W 122°24'0 0.0
2016-Feb-03 00:33N 47°41' W 122°24'0 0.0
2016-Feb-02 23:33N 47°41' W 122°24'0 0.0
2016-Feb-02 22:33N 47°41' W 122°24'0 0.0
2016-Feb-02 21:33N 47°41' W 122°24'0 0.0
2016-Feb-02 20:33N 47°41' W 122°24'0 0.0
2016-Feb-02 19:33N 47°41' W 122°24'0 0.0
2016-Feb-02 18:30N 47°41' W 122°24'0 0.0
2016-Feb-02 17:33N 47°41' W 122°24'0 0.0
2016-Feb-02 16:33N 47°41' W 122°24'0 0.0
2016-Feb-02 15:33N 47°41' W 122°24'0 0.0
2016-Feb-02 14:33N 47°41' W 122°24'0 0.0
2016-Feb-02 13:33N 47°41' W 122°24'0 0.0
2016-Feb-02 12:33N 47°41' W 122°24'0 0.0
2016-Feb-02 11:33N 47°41' W 122°24'0 0.0
2016-Feb-02 10:33N 47°41' W 122°24'0 0.0
2016-Feb-02 09:30N 47°41' W 122°24'0 0.0
2016-Feb-02 08:33N 47°41' W 122°24'0 0.0
2016-Feb-02 07:33N 47°41' W 122°24'0 0.0
2016-Feb-02 06:30N 47°41' W 122°24'0 0.0
2016-Feb-02 05:33N 47°41' W 122°24'0 0.0
2016-Feb-02 04:33N 47°41' W 122°24'0 0.0
2016-Feb-02 03:33N 47°41' W 122°24'0 0.0
2016-Feb-02 02:33N 47°41' W 122°24'0 0.0
2016-Feb-02 01:33N 47°41' W 122°24'0 0.0
2016-Feb-02 00:33N 47°41' W 122°24'0 0.0
2016-Feb-01 23:33N 47°41' W 122°24'0 0.0
2016-Feb-01 22:33N 47°41' W 122°24'0 0.0
2016-Feb-01 21:33N 47°41' W 122°24'0 0.0
2016-Feb-01 20:30N 47°41' W 122°24'0 0.0
2016-Feb-01 19:33N 47°41' W 122°24'0 0.0
2016-Feb-01 18:33N 47°41' W 122°24'0 0.0
2016-Feb-01 17:33N 47°41' W 122°24'0 0.0
2016-Feb-01 16:33N 47°41' W 122°24'0 0.0
2016-Feb-01 15:33N 47°41' W 122°24'0 0.0
2016-Feb-01 14:33N 47°41' W 122°24'0 0.0
2016-Feb-01 13:33N 47°41' W 122°24'0 0.0
2016-Feb-01 12:33N 47°41' W 122°24'0 0.0
2016-Feb-01 11:33N 47°41' W 122°24'0 0.0
2016-Feb-01 10:30N 47°41' W 122°24'0 0.0
2016-Feb-01 09:33N 47°41' W 122°24'0 0.0
2016-Feb-01 08:30N 47°41' W 122°24'0 0.0
2016-Feb-01 07:33N 47°41' W 122°24'0 0.0
2016-Feb-01 06:33N 47°41' W 122°24'0 0.0
2016-Feb-01 05:33N 47°41' W 122°24'0 0.0
2016-Feb-01 04:24N 47°41' W 122°24'0 0.0
2016-Feb-01 03:33N 47°41' W 122°24'0 0.0
2016-Feb-01 02:33N 47°41' W 122°24'0 0.0
2016-Feb-01 01:33N 47°41' W 122°24'0 0.0
2016-Feb-01 00:33N 47°41' W 122°24'1 1.2
2016-Jan-31 23:33N 47°42' W 122°25'5 5.5
2016-Jan-31 22:33N 47°47' W 122°26'6 5.9
2016-Jan-31 21:33N 47°53' W 122°28'42 1.5
2016-Jan-30 17:33N 48°30' W 122°58'3 3.3
2016-Jan-30 16:31N 48°32' W 123°01'0 0.0
2016-Jan-30 15:31N 48°32' W 123°01'0 0.0
2016-Jan-30 14:31N 48°32' W 123°01'0 0.0
2016-Jan-30 13:31N 48°32' W 123°01'0 0.0
2016-Jan-30 12:28N 48°32' W 123°01'0 0.0
2016-Jan-30 11:28N 48°32' W 123°01'0 0.0
2016-Jan-30 10:31N 48°32' W 123°01'0 0.0
2016-Jan-30 09:28N 48°32' W 123°01'0 0.0
2016-Jan-30 08:31N 48°32' W 123°01'0 0.0
2016-Jan-30 07:28N 48°32' W 123°01'0 0.0
2016-Jan-30 06:28N 48°32' W 123°01'0 0.0
2016-Jan-30 05:31N 48°32' W 123°01'0 0.0
2016-Jan-30 04:31N 48°32' W 123°01'0 0.0
2016-Jan-30 03:28N 48°32' W 123°01'0 0.0
2016-Jan-30 02:31N 48°32' W 123°01'0 0.0
2016-Jan-30 01:31N 48°32' W 123°01'0 0.0
2016-Jan-30 00:33N 48°32' W 123°01'0 0.0
2016-Jan-29 23:33N 48°32' W 123°01'17 1.4
2016-Jan-29 11:08N 48°40' W 123°24'0 0.0
2016-Jan-29 09:18N 48°40' W 123°24'  

Dump ship's entire track history